メインページ
METAR-TAF:

METAR-TAF

空港 :

オスロ, ノルウェー

オスロ空港

緯度: 60-12N, 経度: 011-05E, 海抜: 208m

現時点の気象観測

当レポートは12分前の11:50(UTC)に作成
変向風 8kt
気温 7°C
湿度 21%
気圧 1009 hPa
視程10km以上
高度5500ftの雲はほとんどない, 積乱雲.
高度8500ftの雲は散在している
近辺でにわか雨

METAR: ENGM 231150Z VRB08KT 9999 VCSH FEW055CB SCT085 07/M14 Q1009 NOSIG

時間: 14:02 (12:02 UTC)

予報

予報は23日の 12時(UTC)から 24日の 12時(UTC)まで有効
北/北西の風 8kt
視程10km以上
高度4000ftの雲はほとんどない
24日の 03時(UTC)から 24日の 06時(UTC)まで徐々に
北東の風 10kt
高度1400ftの千切れ雲あり
確率 40%
24日の 06時(UTC)から 24日の 12時(UTC)まで
視程: 4000m
高度300ftの千切れ雲あり
小雪

TAF: ENGM 2312/2412 33008KT 9999 FEW040 BECMG 2403/2406 04010KT BKN014 PROB40 2406/2412 4000 -SN BKN003

4,000以上の空港の気象観測と天気予報(METAR報とTAF報)

利用可能な観測所は地図上に黄色い丸と赤い丸で示す。

丸の上にカーソルを重ねると観測所名を参照できる。

次にクリックすると気象観測と天気予報を参照できる。

マップの切り替え:黒色「×」印の緑ボタンをクリックして拡大、「-」印の緑ボタンをクリックして縮小、緑色の三角印をクリックして隣りの地図に切り替え


METAR-TAF: